CheckWX is a tool to help pilots better visualize weather data.  It is not intended as a substitute for an official pre-flight weather briefing.

20:25:24 UTC

96D METAR
Walhalla Municipal Airport
Walhalla, North Dakota, USA
Current

10 mins ago

K96D 202015Z AUTO 36007G14KT 10SM CLR 17/03 A2975 RMK AO2
Observed
Apr-20 @ 20:15 UTC
Wind
  • 360° at 7 KTS
  • Gusting to 14 KTS
Visibility
10 SM
Flight Rules
VFR
Cloud Levels
  • Clear skies
Temperature
17°C / 63°F
Dewpoint
C / 37°F
Humidity
39%
Altimeter
29.75" Hg
Pressure
1007.42 hPa
Previous

30 mins ago

K96D 201955Z AUTO 01011G16KT 10SM CLR 16/03 A2975 RMK AO2
Observed
Apr-20 @ 19:55 UTC
Wind
  • 010° at 11 KTS
  • Gusting to 16 KTS
Visibility
10 SM
Flight Rules
VFR
Cloud Levels
  • Clear skies
Temperature
16°C / 61°F
Dewpoint
C / 37°F
Humidity
42%
Altimeter
29.75" Hg
Pressure
1007.42 hPa
Previous

50 mins ago

K96D 201935Z AUTO 05010G16KT 10SM CLR 16/02 A2974 RMK AO2
Observed
Apr-20 @ 19:35 UTC
Wind
  • 050° at 10 KTS
  • Gusting to 16 KTS
Visibility
10 SM
Flight Rules
VFR
Cloud Levels
  • Clear skies
Temperature
16°C / 61°F
Dewpoint
C / 36°F
Humidity
39%
Altimeter
29.74" Hg
Pressure
1007.12 hPa